createdAt,value
2023-06-29T00:01:42.643Z,40.32
2023-06-29T00:04:10.575Z,40.15
2023-06-29T00:06:37.274Z,40.87
2023-06-29T00:09:06.218Z,40.21
2023-06-29T00:11:32.846Z,40.56
2023-06-29T00:14:06.860Z,41.01
2023-06-29T00:16:39.260Z,40.90
2023-06-29T00:19:06.023Z,39.13
2023-06-29T00:21:33.493Z,40.29
2023-06-29T00:24:00.656Z,39.77
2023-06-29T00:26:29.238Z,39.47
2023-06-29T00:28:56.073Z,39.30
2023-06-29T00:31:23.034Z,38.54
2023-06-29T00:33:49.978Z,38.49
2023-06-29T00:36:20.291Z,37.77
2023-06-29T00:38:47.714Z,37.69
2023-06-29T00:44:28.010Z,38.35
2023-06-29T00:46:54.770Z,39.40
2023-06-29T00:49:22.217Z,39.77
2023-06-29T00:51:52.808Z,39.90
2023-06-29T00:54:22.438Z,38.78
2023-06-29T00:56:50.758Z,38.24
2023-06-29T00:59:17.416Z,37.26
2023-06-29T01:01:43.982Z,37.13
2023-06-29T01:04:18.003Z,38.11
2023-06-29T01:06:44.711Z,38.63
2023-06-29T01:09:11.632Z,38.58
2023-06-29T01:11:38.645Z,38.79
2023-06-29T01:14:05.961Z,40.60
2023-06-29T01:19:48.149Z,43.48
2023-06-29T01:22:14.808Z,42.13
2023-06-29T01:24:42.251Z,40.62
2023-06-29T01:27:11.668Z,41.17
2023-06-29T01:29:40.324Z,39.66
2023-06-29T01:32:09.867Z,39.63
2023-06-29T01:34:36.533Z,38.96
2023-06-29T01:37:05.549Z,38.60
2023-06-29T01:39:32.489Z,39.08
2023-06-29T01:41:59.214Z,39.58
2023-06-29T01:44:26.307Z,39.73
2023-06-29T01:46:59.950Z,39.44
2023-06-29T01:49:26.788Z,39.47
2023-06-29T01:51:53.784Z,39.73
2023-06-29T01:54:21.416Z,40.61
2023-06-29T01:56:48.676Z,39.58
2023-06-29T01:59:16.671Z,41.41
2023-06-29T02:01:43.367Z,40.75
2023-06-29T02:04:10.036Z,43.34
2023-06-29T02:06:36.912Z,43.68
2023-06-29T02:09:04.333Z,42.83
2023-06-29T02:11:31.209Z,43.99
2023-06-29T02:13:58.200Z,43.77
2023-06-29T02:16:27.845Z,44.29
2023-06-29T02:18:54.703Z,45.00
2023-06-29T02:21:24.252Z,44.64
2023-06-29T02:23:56.986Z,45.48
2023-06-29T02:26:23.661Z,44.05
2023-06-29T02:28:51.153Z,44.16
2023-06-29T02:34:05.674Z,45.09
2023-06-29T02:36:35.939Z,45.28
2023-06-29T02:39:03.316Z,45.64
2023-06-29T02:41:37.283Z,46.28
2023-06-29T02:44:05.166Z,46.03
2023-06-29T02:49:03.736Z,45.56
2023-06-29T02:51:30.792Z,45.93
2023-06-29T02:53:59.309Z,45.41
2023-06-29T02:56:26.611Z,45.52
2023-06-29T02:58:53.239Z,46.39
2023-06-29T03:04:16.531Z,47.52
2023-06-29T03:06:43.101Z,47.74
2023-06-29T03:09:13.368Z,48.05
2023-06-29T03:11:42.730Z,47.89
2023-06-29T03:14:12.539Z,48.25
2023-06-29T03:16:39.244Z,48.94
2023-06-29T03:19:06.112Z,48.86
2023-06-29T03:21:35.885Z,49.19
2023-06-29T03:24:02.496Z,48.24
2023-06-29T03:26:29.136Z,48.11
2023-06-29T03:28:57.549Z,47.86
2023-06-29T03:31:24.170Z,46.77
2023-06-29T03:33:50.848Z,47.13
2023-06-29T03:36:21.315Z,47.48
2023-06-29T03:38:48.332Z,47.26
2023-06-29T03:41:15.747Z,48.08
2023-06-29T03:43:44.098Z,47.34
2023-06-29T03:46:13.187Z,48.37
2023-06-29T03:48:42.022Z,48.76
2023-06-29T03:51:09.128Z,48.84
2023-06-29T03:53:38.595Z,49.30
2023-06-29T03:56:07.077Z,48.96
2023-06-29T03:58:33.680Z,49.07
2023-06-29T04:01:04.995Z,48.66
2023-06-29T04:03:31.663Z,48.81
2023-06-29T04:06:00.727Z,48.65
2023-06-29T04:08:34.667Z,48.66
2023-06-29T04:11:01.375Z,48.38
2023-06-29T04:13:28.383Z,48.75
2023-06-29T04:15:55.230Z,47.98
2023-06-29T04:18:23.902Z,49.07
2023-06-29T04:20:51.275Z,48.40
2023-06-29T04:23:19.420Z,48.31
2023-06-29T04:25:53.314Z,48.78
2023-06-29T04:28:23.525Z,48.50
2023-06-29T04:30:50.438Z,47.40
2023-06-29T04:33:17.047Z,46.70
2023-06-29T04:35:43.903Z,45.79
2023-06-29T04:38:10.733Z,45.69
2023-06-29T04:40:37.395Z,45.19
2023-06-29T04:43:04.056Z,45.68
2023-06-29T04:45:31.603Z,45.42
2023-06-29T04:47:58.221Z,44.95
2023-06-29T04:50:25.148Z,45.12
2023-06-29T04:52:51.647Z,46.33
2023-06-29T04:55:18.139Z,46.31
2023-06-29T04:57:44.753Z,47.03
2023-06-29T05:00:11.309Z,47.26
2023-06-29T05:02:37.968Z,46.26
2023-06-29T05:05:07.288Z,45.49
2023-06-29T05:07:34.785Z,45.65
2023-06-29T05:10:01.304Z,46.95
2023-06-29T05:12:27.922Z,42.85
2023-06-29T05:14:54.474Z,40.71
2023-06-29T05:17:22.105Z,38.06
2023-06-29T05:19:49.765Z,36.63
2023-06-29T05:22:16.284Z,35.44
2023-06-29T05:24:43.531Z,33.69
2023-06-29T05:27:10.477Z,32.39
2023-06-29T05:29:39.354Z,31.73
2023-06-29T05:32:06.231Z,30.64
2023-06-29T05:34:33.188Z,29.44
2023-06-29T05:37:00.898Z,29.25
2023-06-29T05:39:28.668Z,28.48
2023-06-29T05:41:56.491Z,27.30
2023-06-29T05:44:23.367Z,26.47
2023-06-29T05:46:50.061Z,26.62
2023-06-29T05:49:16.712Z,25.33
2023-06-29T05:51:43.345Z,26.01
2023-06-29T05:54:11.017Z,24.84
2023-06-29T05:56:39.541Z,24.85
2023-06-29T05:59:06.420Z,24.61
2023-06-29T06:01:33.353Z,24.47
2023-06-29T06:04:00.199Z,24.34
2023-06-29T06:09:14.862Z,23.67
2023-06-29T06:11:47.463Z,23.88
2023-06-29T06:14:14.374Z,23.59
2023-06-29T06:16:41.349Z,23.13
2023-06-29T06:19:08.820Z,22.91
2023-06-29T06:21:35.442Z,23.25
2023-06-29T06:24:02.312Z,22.85
2023-06-29T06:29:46.119Z,24.20
2023-06-29T06:32:12.839Z,24.38
2023-06-29T06:34:39.758Z,23.65
2023-06-29T06:37:11.157Z,24.00
2023-06-29T06:39:37.987Z,24.29
2023-06-29T06:42:04.634Z,24.13
2023-06-29T06:44:38.576Z,23.37
2023-06-29T06:47:05.380Z,23.21
2023-06-29T06:49:32.310Z,22.75
2023-06-29T06:52:01.242Z,22.19
2023-06-29T06:54:27.793Z,22.92
2023-06-29T06:56:54.667Z,21.92
2023-06-29T06:59:21.540Z,22.15
2023-06-29T07:01:48.142Z,21.98
2023-06-29T07:04:15.042Z,22.32
2023-06-29T07:06:41.968Z,22.05
2023-06-29T07:09:11.938Z,22.41
2023-06-29T07:11:40.233Z,21.80
2023-06-29T07:14:06.923Z,22.73
2023-06-29T07:16:33.448Z,24.09
2023-06-29T07:19:00.212Z,23.93
2023-06-29T07:21:27.122Z,24.63
2023-06-29T07:26:28.974Z,23.67
2023-06-29T07:28:55.877Z,23.98
2023-06-29T07:31:24.549Z,24.60
2023-06-29T07:33:51.549Z,24.98
2023-06-29T07:36:18.341Z,24.75
2023-06-29T07:38:45.287Z,23.77
2023-06-29T07:41:12.217Z,23.21
2023-06-29T07:43:38.838Z,23.37
2023-06-29T07:46:05.445Z,23.34
2023-06-29T07:48:32.426Z,23.34
2023-06-29T07:50:59.475Z,23.54
2023-06-29T07:53:26.105Z,24.58
2023-06-29T07:55:54.288Z,24.68
2023-06-29T08:00:52.727Z,24.87
2023-06-29T08:03:19.451Z,25.10
2023-06-29T08:08:15.562Z,27.77
2023-06-29T08:10:42.468Z,26.72
2023-06-29T08:13:11.632Z,26.98
2023-06-29T08:15:39.087Z,27.34
2023-06-29T08:18:05.987Z,28.63
2023-06-29T08:20:33.660Z,25.69
2023-06-29T08:23:00.563Z,26.80
2023-06-29T08:25:28.074Z,27.93
2023-06-29T08:27:55.691Z,29.14
2023-06-29T08:30:22.392Z,29.59
2023-06-29T08:32:51.008Z,28.73
2023-06-29T08:35:17.980Z,29.04
2023-06-29T08:37:45.355Z,29.78
2023-06-29T08:40:12.262Z,31.30
2023-06-29T08:42:39.119Z,31.74
2023-06-29T08:45:07.799Z,32.53
2023-06-29T08:47:36.096Z,32.19
2023-06-29T08:50:03.012Z,32.09
2023-06-29T08:52:29.542Z,32.52
2023-06-29T08:54:56.432Z,32.33
2023-06-29T08:57:27.208Z,31.77
2023-06-29T08:59:54.563Z,31.94
2023-06-29T09:02:21.555Z,31.80
2023-06-29T09:04:48.144Z,31.22
2023-06-29T09:07:16.945Z,30.31
2023-06-29T09:09:44.536Z,31.15
2023-06-29T09:12:11.422Z,32.41
2023-06-29T09:14:38.460Z,31.97
2023-06-29T09:17:05.234Z,31.01
2023-06-29T09:19:34.716Z,31.88
2023-06-29T09:22:02.255Z,33.23
2023-06-29T09:24:28.929Z,32.36
2023-06-29T09:26:56.509Z,31.98
2023-06-29T09:29:26.624Z,31.84
2023-06-29T09:31:53.509Z,31.06
2023-06-29T09:34:21.298Z,32.98
2023-06-29T09:36:48.204Z,32.97
2023-06-29T09:39:15.076Z,32.21
2023-06-29T09:41:41.699Z,32.68
2023-06-29T09:44:08.990Z,33.95
2023-06-29T09:46:35.950Z,32.58
2023-06-29T09:49:10.001Z,31.17
2023-06-29T09:51:37.465Z,32.55
2023-06-29T09:54:03.993Z,32.58
2023-06-29T09:56:33.402Z,32.56
2023-06-29T09:59:00.265Z,32.23
2023-06-29T10:01:29.304Z,32.18
2023-06-29T10:03:56.176Z,32.35
2023-06-29T10:06:22.864Z,31.38
2023-06-29T10:08:49.511Z,31.42
2023-06-29T10:11:16.292Z,31.13
2023-06-29T10:13:43.134Z,30.73
2023-06-29T10:16:09.776Z,30.48
2023-06-29T10:18:36.584Z,30.92
2023-06-29T10:21:03.188Z,30.94
2023-06-29T10:23:29.798Z,30.73
2023-06-29T10:25:56.752Z,30.69
2023-06-29T10:28:24.155Z,30.01
2023-06-29T10:30:52.319Z,29.81
2023-06-29T10:33:19.302Z,29.26
2023-06-29T10:35:46.305Z,30.44
2023-06-29T10:38:13.170Z,29.53
2023-06-29T10:40:40.035Z,29.28
2023-06-29T10:43:15.168Z,29.17
2023-06-29T10:45:41.806Z,29.60
2023-06-29T10:48:08.465Z,29.08
2023-06-29T10:50:35.094Z,29.25
2023-06-29T10:53:04.409Z,30.09
2023-06-29T10:55:31.294Z,29.18
2023-06-29T10:57:57.956Z,29.81
2023-06-29T11:00:26.538Z,29.62
2023-06-29T11:02:53.505Z,29.88
2023-06-29T11:05:20.099Z,30.75
2023-06-29T11:07:46.880Z,30.06
2023-06-29T11:10:13.807Z,30.97
2023-06-29T11:12:40.971Z,30.09
2023-06-29T11:15:19.549Z,29.78
2023-06-29T11:17:46.561Z,30.14
2023-06-29T11:20:14.287Z,30.77
2023-06-29T11:22:41.120Z,30.96
2023-06-29T11:25:07.701Z,31.08
2023-06-29T11:27:35.212Z,30.54
2023-06-29T11:30:02.127Z,30.36
2023-06-29T11:32:28.816Z,30.16
2023-06-29T11:35:03.960Z,30.36
2023-06-29T11:37:31.622Z,30.32
2023-06-29T11:40:06.736Z,29.68
2023-06-29T11:42:45.462Z,29.80
2023-06-29T11:45:13.183Z,29.45
2023-06-29T11:47:40.852Z,29.57
2023-06-29T11:50:09.484Z,28.62
2023-06-29T11:52:38.354Z,28.64
2023-06-29T11:55:07.531Z,28.34
2023-06-29T11:57:36.396Z,28.11
2023-06-29T12:00:05.413Z,28.86
2023-06-29T12:02:31.923Z,29.15
2023-06-29T12:04:59.562Z,28.39
2023-06-29T12:07:26.397Z,28.31
2023-06-29T12:10:00.197Z,28.50
2023-06-29T12:12:27.806Z,29.06
2023-06-29T12:14:57.494Z,28.65
2023-06-29T12:20:09.116Z,28.91
2023-06-29T12:22:37.518Z,29.68
2023-06-29T12:25:05.063Z,29.79
2023-06-29T12:27:33.565Z,29.63
2023-06-29T12:30:00.985Z,29.91
2023-06-29T12:32:28.680Z,29.05
2023-06-29T12:34:56.277Z,28.90
2023-06-29T12:37:22.963Z,28.28
2023-06-29T12:39:54.632Z,28.15
2023-06-29T12:42:22.118Z,29.25
2023-06-29T12:44:48.676Z,29.87
2023-06-29T12:47:15.378Z,28.55
2023-06-29T12:49:43.857Z,27.64
2023-06-29T12:52:11.332Z,29.31
2023-06-29T12:54:40.164Z,29.53
2023-06-29T12:57:09.109Z,30.00
2023-06-29T12:59:38.038Z,28.94
2023-06-29T13:08:06.032Z,28.89
2023-06-29T13:10:34.436Z,29.27
2023-06-29T13:13:01.313Z,28.73
2023-06-29T13:15:27.970Z,28.98
2023-06-29T13:17:57.014Z,27.83
2023-06-29T13:20:24.014Z,28.01
2023-06-29T13:22:51.069Z,27.76
2023-06-29T13:25:17.841Z,27.75
2023-06-29T13:27:44.476Z,28.67
2023-06-29T13:30:11.854Z,29.48
2023-06-29T13:32:38.636Z,28.57
2023-06-29T13:35:05.350Z,27.50
2023-06-29T13:37:36.738Z,27.89
2023-06-29T13:40:03.420Z,28.87
2023-06-29T13:42:30.396Z,28.47
2023-06-29T13:44:57.206Z,27.90
2023-06-29T13:47:23.979Z,27.59
2023-06-29T13:49:51.454Z,27.86
2023-06-29T13:52:18.082Z,28.86
2023-06-29T13:54:45.065Z,28.92
2023-06-29T13:57:11.720Z,28.86
2023-06-29T13:59:38.406Z,30.12
2023-06-29T14:02:05.972Z,29.57
2023-06-29T14:04:32.710Z,29.12
2023-06-29T14:07:00.417Z,28.93
2023-06-29T14:09:28.151Z,28.69
2023-06-29T14:11:57.194Z,28.50
2023-06-29T14:14:23.758Z,28.34
2023-06-29T14:16:52.541Z,27.92
2023-06-29T14:19:19.157Z,28.51
2023-06-29T14:21:46.154Z,28.46
2023-06-29T14:24:13.011Z,27.84
2023-06-29T14:26:40.437Z,27.81
2023-06-29T14:29:07.054Z,27.28
2023-06-29T14:31:33.763Z,27.57
2023-06-29T14:34:02.454Z,27.68
2023-06-29T14:36:29.146Z,26.81
2023-06-29T14:38:55.945Z,27.38
2023-06-29T14:41:22.815Z,27.06
2023-06-29T14:43:49.763Z,26.93
2023-06-29T14:46:18.327Z,27.10
2023-06-29T14:48:45.089Z,26.86
2023-06-29T14:51:14.184Z,26.40
2023-06-29T14:53:40.959Z,25.85
2023-06-29T14:56:07.794Z,26.38
2023-06-29T14:58:35.366Z,27.25
2023-06-29T15:01:02.110Z,26.54
2023-06-29T15:03:34.401Z,26.49
2023-06-29T15:06:04.284Z,26.71
2023-06-29T15:08:31.832Z,27.19
2023-06-29T15:10:59.601Z,26.22
2023-06-29T15:13:26.271Z,26.33
2023-06-29T15:15:54.674Z,25.96
2023-06-29T15:18:21.908Z,25.95
2023-06-29T15:20:49.104Z,26.74
2023-06-29T15:23:16.155Z,25.62
2023-06-29T15:25:46.114Z,25.69
2023-06-29T15:28:13.164Z,24.87
2023-06-29T15:30:52.039Z,25.44
2023-06-29T15:33:20.842Z,25.06
2023-06-29T15:35:48.063Z,25.54
2023-06-29T15:38:15.187Z,25.13
2023-06-29T15:40:43.857Z,26.20
2023-06-29T15:43:10.777Z,26.64
2023-06-29T15:45:37.402Z,26.77
2023-06-29T15:48:04.153Z,26.89
2023-06-29T15:50:30.817Z,27.80
2023-06-29T15:52:57.807Z,28.15
2023-06-29T15:55:24.733Z,28.44
2023-06-29T15:57:52.358Z,29.07
2023-06-29T16:00:18.962Z,30.08
2023-06-29T16:02:45.755Z,31.24
2023-06-29T16:05:12.542Z,31.73
2023-06-29T16:07:42.909Z,32.30
2023-06-29T16:10:09.603Z,34.36
2023-06-29T16:12:38.304Z,35.76
2023-06-29T16:15:05.307Z,35.62
2023-06-29T16:17:32.033Z,34.38
2023-06-29T16:19:58.551Z,32.85
2023-06-29T16:22:26.956Z,34.55
2023-06-29T16:24:53.751Z,32.47
2023-06-29T16:27:20.225Z,32.71
2023-06-29T16:29:47.670Z,32.68
2023-06-29T16:32:14.377Z,33.68
2023-06-29T16:34:41.026Z,34.15
2023-06-29T16:37:09.418Z,35.54
2023-06-29T16:39:37.509Z,34.90
2023-06-29T16:42:04.434Z,34.16
2023-06-29T16:44:31.663Z,33.92
2023-06-29T16:46:58.311Z,35.02
2023-06-29T16:49:33.826Z,35.10
2023-06-29T16:52:01.227Z,34.96
2023-06-29T16:54:35.062Z,35.96
2023-06-29T16:57:04.033Z,35.32
2023-06-29T16:59:30.516Z,34.96
2023-06-29T17:01:57.749Z,34.55
2023-06-29T17:04:24.809Z,34.88
2023-06-29T17:06:51.336Z,35.18
2023-06-29T17:09:19.861Z,36.26
2023-06-29T17:11:46.344Z,36.71
2023-06-29T17:14:21.182Z,37.70
2023-06-29T17:16:47.948Z,37.60
2023-06-29T17:19:15.433Z,38.07
2023-06-29T17:21:44.391Z,39.13
2023-06-29T17:24:11.871Z,39.04
2023-06-29T17:26:38.522Z,38.91
2023-06-29T17:29:07.544Z,38.29
2023-06-29T17:31:35.079Z,37.08
2023-06-29T17:36:49.670Z,34.47
2023-06-29T17:39:16.508Z,35.23
2023-06-29T17:41:44.118Z,35.33
2023-06-29T17:44:10.648Z,34.43
2023-06-29T17:46:39.784Z,33.64
2023-06-29T17:49:07.185Z,32.76
2023-06-29T17:51:34.051Z,33.04
2023-06-29T17:54:01.456Z,32.83
2023-06-29T17:56:28.248Z,32.11
2023-06-29T17:58:54.864Z,32.41
2023-06-29T18:01:22.813Z,33.17
2023-06-29T18:03:49.602Z,34.85
2023-06-29T18:06:16.338Z,35.99
2023-06-29T18:08:50.908Z,37.33
2023-06-29T18:11:17.542Z,39.66
2023-06-29T18:13:45.193Z,39.76
2023-06-29T18:16:11.857Z,38.17
2023-06-29T18:18:38.745Z,38.58
2023-06-29T18:21:05.315Z,39.42
2023-06-29T18:23:31.905Z,41.37
2023-06-29T18:25:59.651Z,42.93
2023-06-29T18:28:26.760Z,43.69
2023-06-29T18:30:53.496Z,44.67
2023-06-29T18:33:19.994Z,42.79
2023-06-29T18:35:47.198Z,44.21
2023-06-29T18:38:14.736Z,45.36
2023-06-29T18:40:41.716Z,44.31
2023-06-29T18:43:08.768Z,46.28
2023-06-29T18:45:36.411Z,45.63
2023-06-29T18:48:04.768Z,46.21
2023-06-29T18:50:31.668Z,47.22
2023-06-29T18:52:59.533Z,47.38
2023-06-29T18:55:26.077Z,47.75
2023-06-29T18:57:55.155Z,47.26
2023-06-29T19:00:21.985Z,46.27
2023-06-29T19:02:48.750Z,46.34
2023-06-29T19:05:15.446Z,46.50
2023-06-29T19:07:42.426Z,47.46
2023-06-29T19:10:09.938Z,47.19
2023-06-29T19:12:36.640Z,47.17
2023-06-29T19:15:06.688Z,46.91
2023-06-29T19:17:33.785Z,46.11
2023-06-29T19:20:03.393Z,46.53
2023-06-29T19:22:30.362Z,47.33
2023-06-29T19:24:58.509Z,46.49
2023-06-29T19:27:27.144Z,44.86
2023-06-29T19:29:53.966Z,44.73
2023-06-29T19:32:21.204Z,46.23
2023-06-29T19:34:47.831Z,47.15
2023-06-29T19:37:15.804Z,47.63
2023-06-29T19:39:44.719Z,48.05
2023-06-29T19:42:12.172Z,48.07
2023-06-29T19:44:38.850Z,48.05
2023-06-29T19:47:11.090Z,47.59
2023-06-29T19:49:37.960Z,47.81
2023-06-29T19:52:04.651Z,46.93
2023-06-29T19:54:31.261Z,45.67
2023-06-29T19:56:58.773Z,46.71
2023-06-29T19:59:25.421Z,47.04
2023-06-29T20:01:52.669Z,46.52
2023-06-29T20:04:21.273Z,46.23
2023-06-29T20:06:48.401Z,46.89
2023-06-29T20:09:14.947Z,48.01
2023-06-29T20:11:41.984Z,49.02
2023-06-29T20:14:10.744Z,49.24
2023-06-29T20:16:37.725Z,48.81
2023-06-29T20:19:04.326Z,48.55
2023-06-29T20:21:30.974Z,48.29
2023-06-29T20:23:58.608Z,48.99
2023-06-29T20:26:25.552Z,49.06
2023-06-29T20:28:52.075Z,48.25
2023-06-29T20:31:18.617Z,49.35
2023-06-29T20:33:45.585Z,49.14
2023-06-29T20:36:12.762Z,49.59
2023-06-29T20:38:41.129Z,49.94
2023-06-29T20:41:08.644Z,50.19
2023-06-29T20:43:36.552Z,50.24
2023-06-29T20:46:03.200Z,51.21
2023-06-29T20:48:29.810Z,50.92
2023-06-29T20:51:11.837Z,50.71
2023-06-29T20:53:43.683Z,50.39
2023-06-29T20:58:50.690Z,49.89
2023-06-29T21:01:17.385Z,49.20
2023-06-29T21:03:45.097Z,48.28
2023-06-29T21:06:12.974Z,46.80
2023-06-29T21:08:40.078Z,46.56
2023-06-29T21:11:06.900Z,45.51
2023-06-29T21:13:34.459Z,44.71
2023-06-29T21:16:01.569Z,44.83
2023-06-29T21:18:28.465Z,44.10
2023-06-29T21:20:55.176Z,45.97
2023-06-29T21:23:21.765Z,48.03
2023-06-29T21:25:48.648Z,48.61
2023-06-29T21:28:22.396Z,48.90
2023-06-29T21:30:48.999Z,49.86
2023-06-29T21:33:15.916Z,49.77
2023-06-29T21:35:42.990Z,50.26
2023-06-29T21:38:10.089Z,53.02
2023-06-29T21:40:39.044Z,54.61
2023-06-29T21:43:08.540Z,53.89
2023-06-29T21:45:35.255Z,54.20
2023-06-29T21:48:01.820Z,54.54
2023-06-29T21:50:28.735Z,52.92
2023-06-29T21:52:55.193Z,54.52
2023-06-29T21:55:22.171Z,53.64
2023-06-29T21:57:55.956Z,54.00
2023-06-29T22:00:22.511Z,52.72
2023-06-29T22:02:50.220Z,52.10
2023-06-29T22:05:17.033Z,51.11
2023-06-29T22:07:43.698Z,50.72
2023-06-29T22:10:10.402Z,50.84
2023-06-29T22:12:37.293Z,51.10
2023-06-29T22:15:04.926Z,51.31
2023-06-29T22:17:33.339Z,52.01
2023-06-29T22:20:02.265Z,52.71
2023-06-29T22:22:28.910Z,55.04
2023-06-29T22:24:57.814Z,56.10
2023-06-29T22:27:31.517Z,56.21
2023-06-29T22:30:00.381Z,56.49
2023-06-29T22:32:26.978Z,56.42
2023-06-29T22:35:01.940Z,56.53
2023-06-29T22:37:29.551Z,56.71
2023-06-29T22:39:58.461Z,55.99
2023-06-29T22:42:27.185Z,55.93
2023-06-29T22:44:54.076Z,55.88
2023-06-29T22:47:20.607Z,54.86
2023-06-29T22:49:54.539Z,55.23
2023-06-29T22:52:21.112Z,55.00
2023-06-29T22:54:47.724Z,54.39
2023-06-29T22:57:14.317Z,52.85
2023-06-29T22:59:40.992Z,51.40
2023-06-29T23:02:07.453Z,50.21
2023-06-29T23:04:39.579Z,48.89
2023-06-29T23:09:55.092Z,47.99
2023-06-29T23:12:21.735Z,46.59
2023-06-29T23:14:49.625Z,45.85
2023-06-29T23:17:16.232Z,46.79
2023-06-29T23:19:42.942Z,48.15
2023-06-29T23:22:09.442Z,49.87
2023-06-29T23:24:37.759Z,51.69
2023-06-29T23:27:04.725Z,52.56
2023-06-29T23:29:31.585Z,53.48
2023-06-29T23:32:05.350Z,55.44
2023-06-29T23:34:31.897Z,56.90
2023-06-29T23:36:58.451Z,58.84
2023-06-29T23:39:24.995Z,59.38
2023-06-29T23:41:58.527Z,58.04
2023-06-29T23:44:26.801Z,56.51
2023-06-29T23:46:53.512Z,53.91
2023-06-29T23:49:21.153Z,52.91
2023-06-29T23:51:47.751Z,51.56
2023-06-29T23:54:16.802Z,50.70
2023-06-29T23:56:50.712Z,51.17
2023-06-29T23:59:17.521Z,51.37
